Huvudsida
METAR-TAF:

METAR-TAF

Flygplatser :

Altus, Oklahoma, USA

latitud: 34-41-55N, longitud: 099-20-17W, höjd: 437 m

Aktuellt väderrapport

Denna rapport gjordes för 12 minuter sedan, klockan 09:55 UTC
Vind 9 kt från sydost
Temperatur 22°C
Fuktighet 78%
Tryck 1011 hPa
Sikt: 16.1 km
Brutna moln på en höjd av 3600 ft

METAR: KAXS 270955Z AUTO 14009KT 10SM BKN036 22/18 A2986 RMK AO2 T02170184

Tid: 05:07 (10:07 UTC)


TAF: saknas

Aktuella väderrapporter och prognoser från 4000 flygplatser (METAR- och TAF-rapporter).

De tillgängliga stationerna syns som gula och röda prickar på kartan.

För musen över prickarna för att se namnen på stationerna.

Klicka sedan för att få väderrapporter och prognoser.

För att ändra kartan: Klicka på de gröna knapparna med ett svart kors på för att zooma in; den gröna knappen med ett streck på för att zooma ut; eller på de gröna pilarna för angränsande kartor.


METAR-TAF: